Tiempo atmosférico en la estación meteorológica de Lugo Aeropuerto, Lugo (445 m.)



Fecha
DESCASC
Temp. máxima en grados centígrados (hora)
DESCASC
Temp. mínima en grados centígrados (hora)
DESCASC
Temp. media en grados centígrados
DESCASC
Racha de viento máxima en m/sg (hora)
DESCASC
Velocidad máxima media en intervalos de 10 minutos(hora)
DESCASC
Precipitaciones diarias en mm
DESCASC
Precipitaciones de 00:00 a 06:00 en mm
DESCASC
Precipitaciones de 06:00 a 12:00 en mm
DESCASC
Precipitaciones de 12:00 a 18:00 en mm
DESCASC
Precipitaciones de 18:00 a 24:00 en mm
DESCASC
18-08-2019 20.3 (17:40) 11 (23:59) 15.6 8.33 (00:20) 4.72 (00:20) 5.4 0 4.6 0.8 0
17-08-2019 28.8 (17:10) 15 (04:00) 21.9 9.17 (13:50) 4.72 (15:00) 0 0 0 0 0
16-08-2019 29.3 (16:40) 8.9 (06:30) 19.1 7.78 (17:10) 3.61 (15:10) 0 0 0 0 0
15-08-2019 25.7 (16:30) 11.4 (00:00) 18.6 5.83 (15:10) 3.33 (18:20) 0 0 0 0 0
14-08-2019 23.9 (15:00) 10 (00:00) 16.9 6.11 (14:50) 3.06 (15:10) 0 0 0 0 0
13-08-2019 25.4 (18:00) 6.4 (00:00) 15.9 6.39 (19:50) 3.33 (19:50) 0 0 0 0 0
12-08-2019 20.9 (17:40) 7.4 (00:00) 14.1 7.78 (18:50) 3.61 (18:00) 0 0 0 0 0
11-08-2019 19.3 (14:40) 10.6 (00:00) 14.9 8.06 (16:00) 5 (15:00) 3.8 0 0 3.8 0
10-08-2019 23.9 (16:40) 14.1 (00:00) 19 7.5 (13:10) 3.89 (13:10) 0 0 0 0 0
09-08-2019 23.7 (15:50) 15.3 (00:00) 19.5 17.22 (15:40) 9.72 (15:30) 2.6 2.2 0.4 0 0
08-08-2019 26.4 (17:00) 18.1 (00:00) 22.3 15.56 (18:10) 6.94 (18:10) 1.2 0.2 0 0.2 0.8
07-08-2019 22.1 (13:00) 15.1 (00:00) 18.6 8.33 (11:10) 4.44 (11:10) 3.2 0 0 2.8 0.4
06-08-2019 23.4 (15:00) 14.6 (00:00) 19 6.39 (17:00) 3.89 (17:00) 0.4 0 0 0.2 0.2
05-08-2019 28.8 (18:00) 12.6 (00:00) 20.7 5.83 (20:40) 3.33 (20:30) 0 0 0 0 0
04-08-2019 27.8 (17:50) 16.6 (00:00) 22.2 6.94 (18:10) 3.33 (18:10) 0 0 0 0 0
03-08-2019 29.2 (16:50) 14.5 (00:00) 21.9 7.22 (18:40) 3.89 (19:10) 0 0 0 0 0
02-08-2019 28.8 (18:00) 15.6 (00:00) 22.2 5 (19:50) 2.5 (18:40) 0 0 0 0 0
01-08-2019 23.5 (15:30) 14.3 (00:00) 18.9 7.22 (19:10) 3.61 (14:10) 0 0 0 0 0
31-07-2019 21.5 (15:00) 5.6 (00:00) 13.5 8.33 (17:30) 3.61 (18:20) 0 0 0 0 0
30-07-2019 22 (18:20) 11 (00:00) 16.5 6.39 (19:50) 2.78 (14:40) 0.6 0 0.6 0 0
29-07-2019 20.6 (15:20) 11.6 (00:00) 16.1 12.22 (13:50) 6.67 (13:50) 1 0.2 0.6 0.2 0
28-07-2019 27.1 (18:10) 7.4 (00:00) 17.3 7.5 (19:00) 4.17 (17:20) 0 0 0 0 0
27-07-2019 21 (16:40) 12.3 (00:00) 16.7 8.06 (20:00) 3.33 (20:10) 14.6 3 11.6 0 0
26-07-2019 22.7 (17:40) 11.4 (00:00) 17.1 6.11 (16:30) 2.78 (13:10) 0.8 0.6 0 0 0.2
25-07-2019 25.8 (12:40) 15.1 (00:00) 20.4 10 (13:20) 5 (15:40) 1.8 0 0 1.8 0
24-07-2019 33 (16:20) 14.9 (00:00) 23.9 10.83 (15:50) 4.72 (15:50) 0 0 0 0 0
23-07-2019 32.5 (15:10) 17.7 (00:00) 25.1 8.33 (16:50) 4.17 (16:10) 0 0 0 0 0
22-07-2019 27.5 (15:50) 17 (00:00) 22.3 6.39 (18:10) 3.61 (18:10) 0 0 0 0 0

Gráficas

Temp. máximas Temp. mínimas Temp. medias Precipitaciones Rachas de viento máximas Velocidades máximas media en intervalos de 10 minutos

Datos horarios

Fecha y hora oficial Temperatura (ºC) Velocidad del viento (km/h) Dirección del viento Racha (km/h) Dirección de racha Precipitación (mm) Presión (hPa) Tendencia (hPa) Humedad (%)
2019-08-20 23:00:00 14.8 6 Nordeste 17 Este 0 970.9 0.6 91
2019-08-20 22:00:00 15.5 6 Nordeste 22 Este 0 970.7 0.8 87
2019-08-20 21:00:00 16.7 10 Nordeste 29 Nordeste 0 970.5 0.7 81
2019-08-20 20:00:00 18.6 11 Nordeste 33 Nordeste 0 970.3 0.4 72
2019-08-20 19:00:00 20.5 12 Nordeste 31 Este 0 969.9 -0.4 64
2019-08-20 18:00:00 21.4 11 Nordeste 31 Este 0 969.8 -0.8 60
2019-08-20 17:00:00 21.9 12 Nordeste 30 Nordeste 0 969.9 -1.1 60
2019-08-20 16:00:00 22.4 13 Nordeste 34 Este 0 970.3 -1 57
2019-08-20 15:00:00 21.7 12 Nordeste 30 Nordeste 0 970.6 -0.9 58
2019-08-20 14:00:00 20.3 13 Nordeste 32 Nordeste 0 971 -0.5 62
2019-08-20 13:00:00 20.4 15 Nordeste 33 Este 0 971.3 -0.1 61
2019-08-20 12:00:00 20.1 14 Nordeste 33 Nordeste 0 971.5 0.5 61
2019-08-20 11:00:00 18.5 11 Nordeste 27 Este 0 971.5 1 68
2019-08-20 10:00:00 16.7 12 Nordeste 23 Nordeste 0 971.4 1.5 75
2019-08-20 09:00:00 13.8 5 Nordeste 13 Este 0 971 1.5 90
2019-08-20 08:00:00 13.3 3 Nordeste 18 Este 0 970.5 1.1 90
2019-08-20 07:00:00 13.7 3 Nordeste 22 Nordeste 0 969.9 0.4 89
2019-08-20 06:00:00 13.1 5 Nordeste 15 Nordeste 0 969.5 -0.1 94
2019-08-20 05:00:00 12.8 5 Nordeste 14 Este 0 969.4 -0.6 92
2019-08-20 04:00:00 13 4 Nordeste 10 Nordeste 0 969.5 -0.5 92
2019-08-20 03:00:00 13.8 4 Nordeste 17 Nordeste 0 969.6 -0.2 89
2019-08-20 02:00:00 14.1 7 Nordeste 20 Este 0 970 0.2 88
2019-08-20 01:00:00 13.8 6 Nordeste 19 Este 0 970 0.6 87
2019-08-20 00:00:00 13.8 7 Nordeste 24 Nordeste 0 969.8 0.7 84
2019-08-19 23:00:00 14.2 11 Nordeste 28 Nordeste 0 969.8 0.8 84
2019-08-19 22:00:00 14.2 6 Nordeste 26 Nordeste 0 969.4 0.7 81
2019-08-19 21:00:00 15.4 13 Nordeste 37 Nordeste 0 969.1 0.6 71
2019-08-19 20:00:00 16.3 12 Nordeste 42 Nordeste 0 969 0.5 71
2019-08-19 19:00:00 18.3 17 Nordeste 38 Nordeste 0 968.7 0.1 62
2019-08-19 18:00:00 18.9 15 Nordeste 30 Nordeste 0 968.5 0 60
2019-08-19 17:00:00 18.7 15 Nordeste 32 Nordeste 0 968.5 0 63
2019-08-19 16:00:00 19.7 6 Nordeste 33 Nordeste 0 968.6 -0.1 65
2019-08-19 15:00:00 19.5 9 Nordeste 29 Nordeste 0 968.5 -0.3 63
2019-08-19 14:00:00 19.7 12 Nordeste 24 Este 0 968.5 -0.2 59
2019-08-19 13:00:00 18.9 12 Nordeste 33 Nordeste 0 968.7 0.2 66
2019-08-19 12:00:00 16.3 12 Nordeste 27 Este 0 968.8 -- 70
2019-08-19 11:00:00 15.5 7 Nordeste 20 Nordeste 0 968.7 -- 84
2019-08-19 10:00:00 12.5 3 Nordeste 6 Norte 0 968.5 -- 94
2019-08-19 09:00:00 9.6 2 Oeste 3 Oeste 0 -- -- 97
2019-08-19 08:00:00 9 2 Sur 3 Sur 0 -- -- 95
2019-08-19 07:00:00 9.4 0 Calma 4 Nordeste 0 -- -- 97
2019-08-19 06:00:00 9.5 0 Calma 4 Sudeste 0 -- -- 97
2019-08-19 05:00:00 9.5 0 Calma 5 Sudeste 0 -- -- 94
2019-08-19 04:00:00 9.4 3 Sudeste 5 Sudeste 0 -- -- 96
2019-08-19 03:00:00 9.8 0 Calma 3 Sudeste 0 -- -- 93
2019-08-19 02:00:00 10.1 2 Sudeste 3 Sudeste 0 -- -- 93
2019-08-19 01:00:00 10.5 2 Sudoeste 3 Oeste 0 -- -- 93
2019-08-19 00:00:00 11 2 Oeste 4 Norte 0 -- -- 91
2019-08-18 23:00:00 12.4 2 Nordeste 7 Este 0 -- -- 86
2019-08-18 22:00:00 13.6 4 Nordeste 17 Nordeste 0 -- -- 82
2019-08-18 21:00:00 15.7 10 Nordeste 23 Nordeste 0 -- -- 76
2019-08-18 20:00:00 16.7 7 Nordeste 23 Nordeste 0 -- -- 77
2019-08-18 19:00:00 18.8 5 Nordeste 17 Este 0 -- -- 73
2019-08-18 18:00:00 19.3 7 Nordeste 15 Este 0 -- -- 73
2019-08-18 17:00:00 19 5 Nordeste 19 Este 0 -- -- 72
2019-08-18 16:00:00 18 8 Nordeste 15 Nordeste 0 -- -- 82
2019-08-18 15:00:00 16.9 4 Nordeste 17 Nordeste 0 -- -- 86
2019-08-18 14:00:00 16.2 5 Nordeste 22 Nordeste 0.2 -- -- 93
2019-08-18 13:00:00 15.6 7 Norte 19 Noroeste 0.6 965.8 2.1 94
2019-08-18 12:00:00 16.2 4 Nordeste 11 Este 0.2 965 1.9 95
2019-08-18 11:00:00 16.2 3 Norte 12 Noroeste 0 964.3 2 96
2019-08-18 10:00:00 15.6 4 Noroeste 15 Norte 2 963.7 2.2 97
2019-08-18 09:00:00 15.8 5 Noroeste 13 Noroeste 1 963.1 2.4 96
2019-08-18 08:00:00 16.7 5 Oeste 15 Noroeste 1.2 962.3 1.4 96
2019-08-18 07:00:00 17.4 7 Sudoeste 22 Sudoeste 0.2 961.5 0.2 95
2019-08-18 06:00:00 18.2 11 Sudoeste 27 Sur 0 960.7 -1.3 88
2019-08-18 05:00:00 19 10 Sur 28 Sur 0 960.9 -1.7 79
2019-08-18 04:00:00 18.8 9 Sudoeste 23 Sudoeste 0 961.3 -1.7 80
2019-08-18 03:00:00 19.3 8 Sur 26 Sur 0 962 -1.4 76
2019-08-18 02:00:00 19.5 9 Sudoeste 25 Sudoeste 0 962.6 -0.3 75
2019-08-18 01:00:00 19.5 12 Sudoeste 30 Oeste 0 963 0.3 76
2019-08-18 00:00:00 18.6 13 Oeste 22 Oeste 0 963.4 0.8 83
2019-08-17 23:00:00 19.3 10 Sudoeste 24 Oeste 0 962.9 0.1 80
2019-08-17 22:00:00 20.5 9 Sudoeste 28 Oeste 0 962.7 -0.1 77
2019-08-17 21:00:00 22.3 13 Oeste 30 Oeste 0 962.6 -0.3 71
2019-08-17 20:00:00 25 15 Oeste 27 Oeste 0 962.8 -0.3 60
2019-08-17 19:00:00 27.1 10 Oeste 26 Oeste 0 962.8 -0.7 53
2019-08-17 18:00:00 28.2 12 Oeste 27 Sudoeste 0 962.9 -1.3 53
2019-08-17 17:00:00 28.5 16 Oeste 30 Sudoeste 0 963.1 -1.6 48
2019-08-17 16:00:00 27.5 14 Sudoeste 27 Sudoeste 0 963.5 -1.7 55
2019-08-17 15:00:00 26.3 17 Sudoeste 28 Oeste 0 964.2 -1.1 57
2019-08-17 14:00:00 25.7 13 Sudoeste 33 Oeste 0 964.7 -0.9 59
2019-08-17 13:00:00 23.8 11 Sudoeste 23 Sur 0 965.2 -0.5 66
2019-08-17 12:00:00 22.2 10 Sudoeste 25 Sudoeste 0 965.3 -0.5 69
2019-08-17 11:00:00 19.7 10 Sudoeste 27 Sur 0 965.6 -0.5 76
2019-08-17 10:00:00 18.2 11 Sur 22 Sudeste 0 965.7 -0.5 82
2019-08-17 09:00:00 17.1 7 Sur 20 Sur 0 965.8 -0.2 86
2019-08-17 08:00:00 16.8 5 Sur 13 Sur 0 966.1 -0.1 88
2019-08-17 07:00:00 16.3 4 Sur 11 Oeste 0 966.2 0 91
2019-08-17 06:00:00 16.2 5 Sur 14 Sudoeste 0 966 -0.5 92
2019-08-17 05:00:00 15.5 4 Sudoeste 12 Oeste 0 966.2 -0.7 96
2019-08-17 04:00:00 15 5 Oeste 10 Sudoeste 0 966.2 -1 95
2019-08-17 03:00:00 15.7 2 Este 6 Sur 0 966.5 -1.1 92
2019-08-17 02:00:00 17.1 2 Sur 17 Sudoeste 0 966.9 -0.5 88
2019-08-17 01:00:00 17.5 8 Sudoeste 17 Sudoeste 0 967.2 0.6 89
2019-08-17 00:00:00 17.9 7 Oeste 14 Sudoeste 0 967.6 1.3 86
2019-08-16 23:00:00 18.9 6 Sudoeste 11 Sudoeste 0 967.4 1.6 84
2019-08-16 22:00:00 21 3 Sudoeste 13 Oeste 0 966.6 0.8 75
2019-08-16 21:00:00 23.4 6 Oeste 20 Oeste 0 966.3 0.4 64
2019-08-16 20:00:00 26.1 9 Oeste 23 Oeste 0 965.8 -0.6 53
2019-08-16 19:00:00 27.9 9 Oeste 22 Oeste 0 965.8 -0.8 46
2019-08-16 18:00:00 28.4 10 Oeste 28 Sudoeste 0 965.9 -0.8 43
2019-08-16 17:00:00 28.8 10 Noroeste 23 Noroeste 0 966.4 -0.7 36
2019-08-16 16:00:00 29.2 9 Oeste 25 Oeste 0 966.6 -0.9 33
2019-08-16 15:00:00 28.2 9 Oeste 20 Sudoeste 0 966.7 -1.3 39
2019-08-16 14:00:00 26.5 8 Sudoeste 18 Oeste 0 967.1 -0.7 41
2019-08-16 13:00:00 23.5 5 Noroeste 13 Noroeste 0 967.5 -0.8 63
2019-08-16 12:00:00 18.7 4 Norte 10 Norte 0 968 -0.6 76
2019-08-16 11:00:00 14.5 3 Norte 8 Norte 0 967.8 -0.6 90
2019-08-16 10:00:00 11.1 2 Sudeste 4 Sudoeste 0 968.3 -0.1 99
2019-08-16 09:00:00 10 3 Oeste 5 Oeste 0 968.6 0.3 99
2019-08-16 08:00:00 9.7 2 Oeste 4 Oeste 0 968.4 0 99
2019-08-16 07:00:00 9.3 0 Calma 4 Sudeste 0 968.4 -0.7 98
2019-08-16 06:00:00 9.1 2 Sur 5 Sudeste 0 968.3 -0.9 92
2019-08-16 05:00:00 10.3 2 Sur 6 Sur 0 968.4 -1.2 93
2019-08-16 04:00:00 10.9 0 Calma 3 Sudeste 0 969.1 -0.6 93
2019-08-16 03:00:00 11.7 0 Calma 4 Sur 0 969.2 -0.9 97
2019-08-16 02:00:00 11.4 0 Calma 4 Sur 0 969.6 -0.6 90
2019-08-16 01:00:00 12.3 2 Sudeste 4 Sur 0 969.7 -0.4 90
2019-08-16 00:00:00 13.6 2 Oeste 6 Este 0 970.1 0.2 87
2019-08-15 23:00:00 15.3 0 Calma 6 Nordeste 0 970.2 0.8 86
2019-08-15 22:00:00 16.9 4 Nordeste 18 Nordeste 0 970.1 0.7 81
2019-08-15 21:00:00 19.7 4 Nordeste 17 Nordeste 0 969.9 0.2 72
2019-08-15 20:00:00 22.5 5 Nordeste 21 Este 0 969.4 -0.7 62
2019-08-15 19:00:00 23.7 12 Este 21 Nordeste 0 969.4 -1 60
2019-08-15 18:00:00 24.8 9 Nordeste 19 Nordeste 0 969.7 -0.9 56
2019-08-15 17:00:00 25.6 6 Nordeste 20 Noroeste 0 970.1 -0.7 51
2019-08-15 16:00:00 24.8 8 Nordeste 21 Nordeste 0 970.4 -0.8 55
2019-08-15 15:00:00 24.5 4 Norte 20 Nordeste 0 970.6 -0.7 54
2019-08-15 14:00:00 23.1 6 Nordeste 17 Nordeste 0 970.8 -0.6 56
2019-08-15 13:00:00 21.9 7 Nordeste 17 Norte 0 971.2 -0.2 58
2019-08-15 12:00:00 19.4 4 Norte 11 Nordeste 0 971.3 0.1 75
2019-08-15 11:00:00 15.3 3 Sudoeste 7 Noroeste 0 971.4 0.2 92
2019-08-15 10:00:00 13.2 2 Norte 6 Noroeste 0 971.4 0.3 98
2019-08-15 09:00:00 12.5 3 Norte 4 Norte 0 971.2 0.1 99
2019-08-15 08:00:00 11.9 0 Calma 3 Nordeste 0 971.2 0 98
2019-08-15 07:00:00 11.9 0 Calma 3 Nordeste 0 971.1 -0.1 96
2019-08-15 06:00:00 12 0 Calma 4 Sudeste 0 971.1 -0.4 95
2019-08-15 05:00:00 12.4 3 Sur 4 Sudeste 0 971.2 -0.5 94
2019-08-15 04:00:00 12.7 2 Sur 4 Sudeste 0 971.2 0 93
2019-08-15 03:00:00 13.3 3 Sur 4 Sur 0 971.5 0.4 95
2019-08-15 02:00:00 13 2 Sur 6 Sudeste 0 971.7 0.5 94
2019-08-15 01:00:00 13.5 3 Sudeste 8 Sudeste 0 971.2 0.3 92
2019-08-15 00:00:00 14.5 4 Sudeste 7 Sudeste 0 971.1 0.8 91
2019-08-14 23:00:00 16.1 2 Sudeste 6 Sur 0 971.2 1.1 90
2019-08-14 22:00:00 18.7 2 Nordeste 13 Noroeste 0 970.9 1 80
2019-08-14 21:00:00 21 5 Noroeste 15 Noroeste 0 970.3 0.2 73
2019-08-14 20:00:00 22.9 7 Noroeste 19 Noroeste 0 970.1 -0.1 64
2019-08-14 19:00:00 22.3 8 Noroeste 21 Oeste 0 969.9 -0.5 74
2019-08-14 18:00:00 22.2 5 Oeste 15 Oeste 0 970.1 -0.1 75
2019-08-14 17:00:00 22.3 6 Oeste 13 Oeste 0 970.2 -0.1 76
2019-08-14 16:00:00 21.9 5 Oeste 20 Oeste 0 970.4 0 82
2019-08-14 15:00:00 23.9 10 Oeste 22 Oeste 0 970.2 -0.2 67
2019-08-14 14:00:00 22.9 5 Oeste 18 Oeste 0 970.3 0 70
2019-08-14 13:00:00 22 6 Sudoeste 18 Oeste 0 970.4 0.4 65
2019-08-14 12:00:00 20.2 9 Sudoeste 19 Oeste 0 970.4 0.4 71
2019-08-14 11:00:00 17.8 8 Sudoeste 18 Sudoeste 0 970.3 1 78
2019-08-14 10:00:00 15.6 3 Nordeste 6 Nordeste 0 970 0.2 93
2019-08-14 09:00:00 11.9 2 Este 8 Noroeste 0 970 0.4 98
2019-08-14 08:00:00 10.8 2 Oeste 5 Noroeste 0 969.3 -0.1 97
2019-08-14 07:00:00 10.4 0 Calma 4 Sur 0 969.8 -0.2 96
2019-08-14 06:00:00 10 2 Este 5 Norte 0 969.6 -0.4 96
2019-08-14 05:00:00 10.5 2 Oeste 7 Sudeste 0 969.4 -0.7 95
2019-08-14 04:00:00 11 0 Calma 6 Sudeste 0 970 -0.4 94
2019-08-14 03:00:00 11.2 3 Sudeste 8 Noroeste 0 970 -0.8 94
2019-08-14 02:00:00 12.2 0 Calma 8 Sudeste 0 970.1 -0.7 91
2019-08-14 01:00:00 12.7 3 Noroeste 8 Oeste 0 970.4 0.3 95
2019-08-14 00:00:00 13.6 2 Sudoeste 5 Sudeste 0 970.8 0.9 90
2019-08-13 23:00:00 15 3 Oeste 7 Nordeste 0 970.8 1.5 84
2019-08-13 22:00:00 16.5 4 Nordeste 12 Este 0 970.1 1.2 80
2019-08-13 21:00:00 18.5 5 Nordeste 21 Nordeste 0 969.9 0.9 72
2019-08-13 20:00:00 21 12 Nordeste 23 Nordeste 0 969.3 0.1 63
2019-08-13 19:00:00 25.2 6 Noroeste 18 Norte 0 968.9 -0.9 38
2019-08-13 18:00:00 25.3 6 Noroeste 15 Noroeste 0 969 -1.4 36
2019-08-13 17:00:00 25.2 5 Oeste 15 Noroeste 0 969.2 -1.6 36
2019-08-13 16:00:00 24.1 4 Oeste 16 Oeste 0 969.8 -1.2 39
2019-08-13 15:00:00 22.7 6 Noroeste 13 Noroeste 0 970.4 -1 44
2019-08-13 14:00:00 21.7 5 Noroeste 14 Nordeste 0 970.8 -0.7 50
2019-08-13 13:00:00 20.3 4 Este 11 Este 0 971 -0.4 58
2019-08-13 12:00:00 18 4 Norte 10 Este 0 971.4 -0.1 65
2019-08-13 11:00:00 15.6 3 Nordeste 8 Nordeste 0 971.5 0.4 75
2019-08-13 10:00:00 11.8 2 Oeste 5 Oeste 0 971.4 0.3 89
2019-08-13 09:00:00 8.1 0 Calma 3 Este 0 971.5 0.7 98
2019-08-13 08:00:00 6.5 0 Calma 4 Sur 0 971.1 0.2 94
2019-08-13 07:00:00 6.5 2 Sur 4 Sudoeste 0 971.1 -0.2 95
2019-08-13 06:00:00 6.9 0 Calma 3 Sur 0 970.8 -1 93
2019-08-13 05:00:00 7.6 2 Sur 5 Sur 0 970.9 -1.6 93
2019-08-13 04:00:00 8.1 2 Sudoeste 4 Sudeste 0 971.3 -1.4 91
2019-08-13 03:00:00 9 3 Sudeste 4 Sudeste 0 971.8 -1.1 92
2019-08-13 02:00:00 9.8 3 Sudoeste 6 Noroeste 0 972.5 -0.7 92
2019-08-13 01:00:00 11.3 3 Noroeste 12 Nordeste 0 972.7 -0.1 88
2019-08-13 00:00:00 12.5 4 Nordeste 13 Nordeste 0 972.9 0.8 86
2019-08-12 23:00:00 13.3 7 Nordeste 21 Nordeste 0 973.2 1.4 82
2019-08-12 22:00:00 14 4 Nordeste 18 Nordeste 0 972.8 1.6 77
2019-08-12 21:00:00 15.2 10 Nordeste 21 Nordeste 0 972.1 1.1 69
2019-08-12 20:00:00 16.3 7 Nordeste 24 Nordeste 0 971.8 0.3 63
2019-08-12 19:00:00 18.4 9 Nordeste 28 Nordeste 0 971.2 -1 59
2019-08-12 18:00:00 19.1 13 Nordeste 23 Nordeste 0 971 -1.5 58
2019-08-12 17:00:00 19.3 7 Nordeste 23 Nordeste 0 971.5 -1.2 56
2019-08-12 16:00:00 19.7 5 Norte 18 Noroeste 0 972.2 -0.8 53
2019-08-12 15:00:00 19.6 4 Nordeste 16 Noroeste 0 972.5 -0.6 52
2019-08-12 14:00:00 19.8 6 Noroeste 16 Noroeste 0 972.7 -0.3 49
2019-08-12 13:00:00 18.4 5 Norte 14 Norte 0 973 0.3 56
2019-08-12 12:00:00 16.7 4 Este 12 Nordeste 0 973.1 0.9 66
2019-08-12 11:00:00 14 2 Nordeste 6 Nordeste 0 973 1.4 85
2019-08-12 10:00:00 11.4 3 Este 4 Nordeste 0 972.7 1.5 97
2019-08-12 09:00:00 9.8 0 Calma 5 Noroeste 0 972.2 1.2 99
2019-08-12 08:00:00 8.5 0 Calma 9 Sudeste 0 971.6 0.7 99
2019-08-12 07:00:00 7.6 4 Sudeste 8 Sur 0 971.2 0.2 96
2019-08-12 06:00:00 8 2 Este 7 Sudeste 0 971 -0.3 96
2019-08-12 05:00:00 8.7 3 Sudeste 7 Sudeste 0 970.9 -0.6 94
2019-08-12 04:00:00 9.1 3 Sudeste 5 Sudeste 0 971 -0.5 94
2019-08-12 03:00:00 9.9 2 Sur 5 Sur 0 971.3 -0.2 93
2019-08-12 02:00:00 10.8 3 Sur 5 Sur 0 971.5 0.3 94
2019-08-12 01:00:00 10.6 3 Sur 5 Sudeste 0 971.5 1 96
2019-08-12 00:00:00 11.1 2 Sur 6 Sur 0 971.5 1.6 93
2019-08-11 23:00:00 12.4 3 Sudeste 8 Oeste 0 971.2 1.7 89
2019-08-11 22:00:00 13.7 4 Oeste 9 Oeste 0 970.5 1 85
2019-08-11 21:00:00 15.7 5 Oeste 10 Noroeste 0 969.9 -- 75
2019-08-11 20:00:00 16.7 5 Oeste 19 Oeste 0 969.5 -- 74
2019-08-11 19:00:00 16.7 10 Oeste 21 Oeste 0 969.5 -- 79
2019-08-11 18:00:00 18.3 6 Oeste 16 Oeste 0 -- -- 69
2019-08-11 17:00:00 16.1 5 Oeste 23 Oeste 2.6 -- -- 79
2019-08-11 16:00:00 16.8 10 Noroeste 29 Noroeste 0.4 -- -- 73
2019-08-11 15:00:00 18.8 18 Oeste 27 Sudoeste 0 -- -- 67
2019-08-11 14:00:00 18.5 15 Oeste 27 Oeste 0.2 -- -- 66
2019-08-11 13:00:00 16.7 8 Oeste 22 Oeste 0.6 -- -- 74
2019-08-11 12:00:00 17.4 7 Oeste 17 Oeste 0 -- -- 61
2019-08-11 11:00:00 16.5 7 Oeste 15 Oeste 0 -- -- 70
2019-08-11 10:00:00 14.2 5 Sudoeste 11 Sudoeste 0 -- -- 87
2019-08-11 09:00:00 12.5 0 Calma 5 Oeste 0 -- -- 94
2019-08-11 08:00:00 10.9 2 Sur 8 Sudeste 0 968 0.2 94
2019-08-11 07:00:00 11.3 0 Calma 4 Oeste 0 967.8 -0.3 91
2019-08-11 06:00:00 12.3 2 Sudoeste 4 Sudeste 0 967.8 -1 91
2019-08-11 05:00:00 13.4 0 Calma 4 Sudeste 0 967.8 -1.3 90
2019-08-11 04:00:00 13.4 2 Sudeste 4 Sudeste 0 968.1 -1.1 90
2019-08-11 03:00:00 13.8 2 Sudeste 5 Sudeste 0 968.8 -0.6 87
2019-08-11 02:00:00 14.4 2 Oeste 6 Oeste 0 969.1 -0.6 84
2019-08-11 01:00:00 14.9 2 Oeste 6 Noroeste 0 969.2 -0.3 82
2019-08-11 00:00:00 15.7 3 Noroeste 11 Norte 0 969.4 0.1 77
2019-08-10 23:00:00 15.7 6 Noroeste 11 Noroeste 0 969.7 1 76
2019-08-10 22:00:00 16.3 4 Oeste 15 Norte 0 969.5 0.9 71
2019-08-10 21:00:00 18 6 Norte 19 Norte 0 969.3 1.2 69
2019-08-10 20:00:00 20.5 10 Noroeste 24 Noroeste 0 968.7 0.6 59
2019-08-10 19:00:00 22.9 9 Noroeste 26 Noroeste 0 968.6 0 47
2019-08-10 18:00:00 23.4 8 Oeste 19 Oeste 0 968.1 -0.8 40
2019-08-10 17:00:00 23.6 9 Oeste 24 Oeste 0 968.1 -1.3 40
2019-08-10 16:00:00 22.9 6 Sudoeste 17 Oeste 0 968.6 -0.9 44
2019-08-10 15:00:00 22 9 Oeste 24 Sudoeste 0 968.9 -0.8 46
2019-08-10 14:00:00 20.7 10 Oeste 27 Sudoeste 0 969.4 -0.3 47
2019-08-10 13:00:00 20.5 10 Oeste 23 Oeste 0 969.5 -0.1 52
2019-08-10 12:00:00 20.1 10 Oeste 22 Sudoeste 0 969.7 0.5 56
2019-08-10 11:00:00 18.3 7 Sudoeste 17 Oeste 0 969.7 0.7 69
2019-08-10 10:00:00 16.8 8 Sudoeste 16 Sudoeste 0 969.6 1.3 77
2019-08-10 09:00:00 14.8 4 Sudoeste 10 Sudoeste 0 969.2 1.2 88
2019-08-10 08:00:00 14.2 4 Sur 14 Sur 0 969 1.1 91
2019-08-10 07:00:00 14.6 6 Sudoeste 15 Sur 0 968.3 0.7 87
2019-08-10 06:00:00 14.9 5 Sudoeste 18 Sudoeste 0 968 0.5 85
2019-08-10 05:00:00 14.9 6 Sudoeste 20 Sudoeste 0 967.9 0.2 85
2019-08-10 04:00:00 14.9 8 Sudoeste 21 Sur 0 967.6 0.1 83
2019-08-10 03:00:00 15.3 6 Sudoeste 17 Sudoeste 0 967.5 0.3 81
2019-08-10 02:00:00 15 7 Sudoeste 23 Sudoeste 0 967.7 0.8 82
2019-08-10 01:00:00 15.4 8 Sudoeste 21 Sudoeste 0 967.5 1.2 82
2019-08-10 00:00:00 15.3 6 Sudoeste 23 Oeste 0 967.2 1.6 82
2019-08-09 23:00:00 16.1 10 Sudoeste 20 Oeste 0 966.9 2 78
2019-08-09 22:00:00 17 10 Sudoeste 35 Oeste 0 966.3 1.9 74
2019-08-09 21:00:00 18.5 15 Oeste 33 Sudoeste 0 965.6 1.9 69
2019-08-09 20:00:00 19.5 17 Oeste 41 Oeste 0 964.9 1.4 62
2019-08-09 19:00:00 20.5 22 Sudoeste 49 Sudoeste 0 964.4 1.3 59
2019-08-09 18:00:00 20.8 29 Sudoeste 53 Sudoeste 0 963.7 1.1 58
2019-08-09 17:00:00 21.3 23 Sudoeste 51 Sudoeste 0 963.5 1.5 56
2019-08-09 16:00:00 22.7 30 Sudoeste 62 Oeste 0 963.1 1.4 49
2019-08-09 15:00:00 22.5 33 Sudoeste 57 Oeste 0 962.6 0.9 52
2019-08-09 14:00:00 20.8 25 Oeste 55 Oeste 0 962 -- 65
2019-08-09 13:00:00 19.9 27 Sudoeste 48 Oeste 0 961.7 -- 70
2019-08-09 12:00:00 18.2 19 Oeste 41 Sudoeste 0.4 961.7 -- 83
2019-08-09 11:00:00 19.2 17 Sudoeste 44 Sur 0 -- -- 74
2019-08-09 10:00:00 18.6 16 Sudoeste 41 Sudoeste 0 -- -- 76
2019-08-09 09:00:00 17 16 Sudoeste 39 Sudoeste 0 -- -- 80
2019-08-09 08:00:00 15.9 13 Sudoeste 32 Oeste 0 -- -- 85
2019-08-09 07:00:00 15.8 13 Sudoeste 31 Sudoeste 0 -- -- 87
2019-08-09 06:00:00 15.9 13 Sudoeste 38 Sudoeste 0 -- -- 84
2019-08-09 05:00:00 16 14 Sudoeste 31 Sudoeste 0 -- -- 86
2019-08-09 04:00:00 16.3 10 Sudoeste 39 Oeste 0.2 -- -- 89
2019-08-09 03:00:00 17.1 21 Sudoeste 36 Oeste 0.8 -- -- 92
2019-08-09 02:00:00 18.5 10 Oeste 35 Oeste 1.2 -- -- 94
2019-08-09 01:00:00 20.5 14 Sudoeste 35 Sudoeste 0 -- -- 90
2019-08-09 00:00:00 20.4 12 Sur 37 Sudoeste 0.6 -- -- 90
2019-08-08 23:00:00 22 16 Sudoeste 38 Sudoeste 0 -- -- 79
2019-08-08 22:00:00 22.4 15 Sudoeste 41 Oeste 0 -- -- 74
2019-08-08 21:00:00 22.4 15 Sudoeste 49 Sudoeste 0 -- -- 75
2019-08-08 20:00:00 22.8 15 Sudoeste 41 Sudoeste 0.2 -- -- 75
2019-08-08 19:00:00 22.8 19 Sudoeste 56 Sudoeste 0 -- -- 78
2019-08-08 18:00:00 25.8 20 Sudoeste 46 Sudoeste 0 -- -- 65
2019-08-08 17:00:00 26.4 17 Sudoeste 44 Sudoeste 0 -- -- 68
2019-08-08 16:00:00 25.5 14 Sudoeste 42 Sudoeste 0 -- -- 72
2019-08-08 15:00:00 23.8 14 Sudoeste 29 Sudoeste 0 958.6 -0.6 79
2019-08-08 14:00:00 24 13 Sudoeste 36 Sur 0.2 958.9 -0.4 81
2019-08-08 13:00:00 25.2 13 Sudoeste 35 Sudoeste 0 958.9 -0.4 69
2019-08-08 12:00:00 24.3 15 Sudoeste 37 Sudoeste 0 959.2 -0.1 73
2019-08-08 11:00:00 23.4 13 Sudoeste 36 Sudoeste 0 959.3 0.1 74
2019-08-08 10:00:00 21.8 9 Sudoeste 24 Sudoeste 0 959.3 0.4 80
2019-08-08 09:00:00 20.6 9 Sudoeste 18 Sudoeste 0 959.3 0.4 82
2019-08-08 08:00:00 20 9 Sudoeste 27 Sur 0 959.2 -0.1 84
2019-08-08 07:00:00 19.8 10 Sudoeste 30 Sudoeste 0 958.9 -0.7 85
2019-08-08 06:00:00 19.8 10 Sur 31 Sur 0 958.9 -0.9 83
2019-08-08 05:00:00 19.7 9 Sudoeste 26 Sur 0 959.3 -0.9 83
2019-08-08 04:00:00 19.3 8 Sur 20 Sur 0 959.6 -0.7 85
2019-08-08 03:00:00 18.9 10 Sur 25 Sudoeste 0 959.8 -0.8 87
2019-08-08 02:00:00 18.8 8 Sur 28 Sudoeste 0 960.2 -0.6 88
2019-08-08 01:00:00 18.3 9 Sudoeste 28 Sur 0.2 960.3 -0.1 92
2019-08-08 00:00:00 18.2 10 Sur 29 Sudoeste 0.4 960.6 0.1 93
2019-08-07 23:00:00 19.3 8 Sudoeste 21 Sudoeste 0 960.8 0.3 88
2019-08-07 22:00:00 19.7 7 Sudoeste 21 Sur 0 960.4 -0.6 85
2019-08-07 21:00:00 19.9 8 Sur 22 Sudoeste 0 960.5 -0.7 86
2019-08-07 20:00:00 20.2 8 Sur 21 Sudoeste 0 960.5 -0.9 88
2019-08-07 19:00:00 19.9 9 Sudoeste 21 Sudoeste 0 961 -0.6 89
2019-08-07 18:00:00 19.6 6 Sur 23 Sudeste 2 961.2 -0.4 91
2019-08-07 17:00:00 20.2 8 Sur 23 Sur 0.2 961.4 -0.5 88
2019-08-07 16:00:00 20.3 7 Sur 29 Sur 0 961.6 -0.3 87
2019-08-07 15:00:00 20.4 10 Sur 30 Sudoeste 0 961.6 -- 83
2019-08-07 14:00:00 19.6 6 Sudoeste 28 Sudoeste 0.6 961.9 -- 87
2019-08-07 13:00:00 22.1 8 Sur 22 Sudoeste 0 961.9 -- 70
2019-08-07 12:00:00 21.1 10 Sudoeste 30 Sudoeste 0 -- -- 76
2019-08-07 11:00:00 20.6 12 Sudoeste 21 Oeste 0 -- -- 78
2019-08-07 10:00:00 19.4 5 Sudoeste 10 Sur 0 -- -- 86
2019-08-07 09:00:00 16.6 2 Norte 6 Oeste 0 -- -- 97
2019-08-07 08:00:00 15.3 0 Calma 5 Sudeste 0 961.2 -0.4 97
2019-08-07 07:00:00 15.3 5 Sudeste 7 Sudeste 0 961.5 -0.2 97
2019-08-07 06:00:00 15.2 2 Nordeste 4 Nordeste 0 961.6 -0.3 96
2019-08-07 05:00:00 16.2 0 Calma 9 Sudoeste 0 961.6 -0.8 92
2019-08-07 04:00:00 16.6 3 Sur 8 Sudoeste 0 961.7 -1 96
2019-08-07 03:00:00 17.2 0 Calma 5 Sur 0 961.9 -1 94
2019-08-07 02:00:00 17.6 3 Sudeste 6 Sudeste 0 962.4 -0.5 95
2019-08-07 01:00:00 18.1 0 Calma 5 Sudeste 0 962.7 0.2 92
2019-08-07 00:00:00 18.1 3 Sudeste 5 Sudeste 0 962.9 0.5 93
2019-08-06 23:00:00 18.5 2 Sudoeste 8 Sudeste 0 962.9 1 92
2019-08-06 22:00:00 19 4 Oeste 9 Sudoeste 0 962.5 -0.4 90
2019-08-06 21:00:00 19.6 3 Noroeste 19 Sur 0 962.4 -0.9 85
2019-08-06 20:00:00 19.7 7 Sur 22 Sudeste 0 961.9 -2.6 87
2019-08-06 19:00:00 20 5 Sur 13 Sudoeste 0.2 962.9 -0.9 88
2019-08-06 18:00:00 20.7 4 Este 12 Oeste 0.2 963.3 -0.2 84
2019-08-06 17:00:00 21.1 14 Sudoeste 23 Sudoeste 0 964.5 0.8 79
2019-08-06 16:00:00 22.8 8 Noroeste 21 Oeste 0 963.8 0 68
2019-08-06 15:00:00 23.3 6 Noroeste 19 Noroeste 0 963.5 -0.4 65
2019-08-06 14:00:00 22.9 4 Oeste 17 Oeste 0 963.7 -0.1 66
2019-08-06 13:00:00 22.2 7 Sudoeste 17 Sur 0 963.8 -0.3 71
2019-08-06 12:00:00 21.3 9 Sudoeste 21 Sudoeste 0 963.9 -0.1 72
2019-08-06 11:00:00 20.8 8 Sudoeste 21 Oeste 0 963.8 0.3 72
2019-08-06 10:00:00 19 9 Sudoeste 14 Sudoeste 0 964.1 0.8 83
2019-08-06 09:00:00 17.9 6 Sudoeste 11 Sudoeste 0 964 0.4 89
2019-08-06 08:00:00 17.7 4 Sudoeste 7 Sudoeste 0 963.5 -0.4 90
2019-08-06 07:00:00 17.4 0 Calma 5 Sudoeste 0 963.3 -0.8 92
2019-08-06 06:00:00 16.6 2 Sur 6 Oeste 0 963.6 -0.9 96
2019-08-06 05:00:00 15.3 0 Calma 4 Sur 0 963.9 -0.7 95
2019-08-06 04:00:00 14.7 0 Calma 5 Sudeste 0 964.1 -1.1 93
2019-08-06 03:00:00 14.9 2 Sur 6 Sudeste 0 964.5 -0.9 92
2019-08-06 02:00:00 15.3 3 Sudeste 8 Sudeste 0 964.6 -0.5 92
2019-08-06 01:00:00 16.2 0 Calma 5 Sudeste 0 965.2 0.5 88
2019-08-06 00:00:00 17.7 0 Calma 5 Este 0 965.4 1.2 84
2019-08-05 23:00:00 17.9 2 Este 8 Este 0 965.1 1.1 83
2019-08-05 22:00:00 19.8 2 Norte 11 Norte 0 964.7 1 77
2019-08-05 21:00:00 21.1 6 Nordeste 21 Nordeste 0 964.2 0.5 74
2019-08-05 20:00:00 23.7 9 Nordeste 20 Nordeste 0 964 0 64
2019-08-05 19:00:00 27.7 7 Noroeste 19 Noroeste 0 963.7 -0.7 49
2019-08-05 18:00:00 28.6 9 Noroeste 18 Noroeste 0 963.7 -1.1 45
2019-08-05 17:00:00 27.6 5 Este 17 Oeste 0 964 -1.1 49
2019-08-05 16:00:00 27.4 5 Noroeste 19 Oeste 0 964.4 -1.2 48
2019-08-05 15:00:00 26.6 6 Noroeste 18 Noroeste 0 964.8 -1.1 50
2019-08-05 14:00:00 25.8 6 Noroeste 17 Noroeste 0 965.1 -0.9 54
2019-08-05 13:00:00 24.4 6 Noroeste 10 Noroeste 0 965.6 -0.6 53
2019-08-05 12:00:00 22.5 5 Norte 12 Oeste 0 965.9 -0.7 63
2019-08-05 11:00:00 20.5 3 Noroeste 8 Noroeste 0 966 -0.2 73
2019-08-05 10:00:00 17.4 3 Este 6 Este 0 966.2 -0.2 82
2019-08-05 09:00:00 13.9 3 Noroeste 5 Noroeste 0 966.6 0.3 92
2019-08-05 08:00:00 12.6 0 Calma 3 Sur 0 966.2 -0.2 93
2019-08-05 07:00:00 12.8 0 Calma 4 Sur 0 966.4 -0.2 91
2019-08-05 06:00:00 13.6 0 Calma 6 Sudeste 0 966.3 -0.1 92
2019-08-05 05:00:00 14.3 3 Sudeste 6 Sudeste 0 966.4 -0.3 93
2019-08-05 04:00:00 15.7 0 Calma 4 Oeste 0 966.6 -0.3 89
2019-08-05 03:00:00 16.8 0 Calma 4 Oeste 0 966.4 -0.7 87
2019-08-05 02:00:00 17.7 3 Sudoeste 5 Oeste 0 966.7 -0.2 86
2019-08-05 01:00:00 17.8 2 Oeste 5 Norte 0 966.9 0.5 87
2019-08-05 00:00:00 17.8 3 Noroeste 6 Oeste 0 967.1 1.1 87
2019-08-04 23:00:00 18.1 3 Norte 9 Norte 0 966.9 1.2 86
2019-08-04 22:00:00 18.3 3 Nordeste 14 Este 0 966.4 1.2 85
2019-08-04 21:00:00 20 5 Nordeste 22 Nordeste 0 966 1.3 79
2019-08-04 20:00:00 22 7 Nordeste 24 Nordeste 0 965.7 1 72
2019-08-04 19:00:00 23.2 12 Nordeste 25 Este 0 965.2 0.4 69
2019-08-04 18:00:00 27.3 9 Norte 19 Noroeste 0 964.7 -0.3 53
2019-08-04 17:00:00 27.3 7 Noroeste 17 Nordeste 0 964.7 -0.7 44
2019-08-04 16:00:00 27.2 7 Noroeste 18 Noroeste 0 964.8 -1 43
2019-08-04 15:00:00 26.2 5 Oeste 17 Oeste 0 965 -0.8 47
2019-08-04 14:00:00 24.9 7 Oeste 16 Sudoeste 0 965.4 -0.2 52
2019-08-04 13:00:00 23.1 8 Oeste 14 Oeste 0 965.8 0.2 56
2019-08-04 12:00:00 22.3 5 Noroeste 13 Noroeste 0 965.8 0.3 62
2019-08-04 11:00:00 21.7 5 Noroeste 11 Noroeste 0 965.6 0.3 70
2019-08-04 10:00:00 19.7 4 Norte 8 Nordeste 0 965.6 0.3 83
2019-08-04 09:00:00 17.3 3 Oeste 5 Oeste 0 965.5 0.1 93
2019-08-04 08:00:00 16.7 2 Este 4 Este 0 965.3 -0.1 94
2019-08-04 07:00:00 16.7 3 Sudeste 6 Sudeste 0 965.3 -0.2 94
2019-08-04 06:00:00 16.9 3 Oeste 7 Norte 0 965.4 -0.1 91
2019-08-04 05:00:00 17.3 0 Calma 4 Oeste 0 965.4 -0.1 91
2019-08-04 04:00:00 17.4 3 Oeste 6 Oeste 0 965.5 -0.1 91
2019-08-04 03:00:00 17.3 0 Calma 5 Oeste 0 965.5 -0.2 93
2019-08-04 02:00:00 17.8 0 Calma 3 Sudoeste 0 965.5 -0.1 91
2019-08-04 01:00:00 17.3 0 Calma 4 Sudeste 0 965.6 0.3 93
2019-08-04 00:00:00 17.2 2 Oeste 7 Noroeste 0 965.7 0.9 91
2019-08-03 23:00:00 17.8 4 Este 8 Este 0 965.6 1.3 90
2019-08-03 22:00:00 18.8 4 Nordeste 18 Nordeste 0 965.3 1 87
2019-08-03 21:00:00 20.6 7 Nordeste 19 Nordeste 0 964.8 0.8 80
2019-08-03 20:00:00 23 6 Nordeste 23 Este 0 964.3 0.3 73
2019-08-03 19:00:00 24.6 12 Nordeste 26 Este 0 964.3 -0.2 68
2019-08-03 18:00:00 28.5 11 Noroeste 24 Noroeste 0 964 -0.8 48
2019-08-03 17:00:00 28.8 6 Norte 19 Norte 0 964 -1.1 46
2019-08-03 16:00:00 28.2 5 Nordeste 17 Noroeste 0 964.5 -0.9 44
2019-08-03 15:00:00 26.8 6 Norte 14 Este 0 964.8 -0.7 39
2019-08-03 14:00:00 24.7 5 Noroeste 11 Norte 0 965.1 -0.3 48
2019-08-03 13:00:00 21.4 4 Oeste 13 Noroeste 0 965.4 0 72
2019-08-03 12:00:00 18 3 Noroeste 10 Noroeste 0 965.5 0.2 89
2019-08-03 11:00:00 16.2 3 Noroeste 9 Sur 0 965.4 0.3 95
2019-08-03 10:00:00 15.3 3 Sur 7 Sur 0 965.4 0.3 97
2019-08-03 09:00:00 14.9 3 Sudoeste 6 Sudoeste 0 965.3 0.3 98
2019-08-03 08:00:00 14.6 3 Sudeste 7 Este 0 965.1 -0.1 99
2019-08-03 07:00:00 14.8 3 Sudeste 6 Sudeste 0 965.1 -0.1 98
2019-08-03 06:00:00 14.9 2 Este 7 Este 0 965 -0.4 98
2019-08-03 05:00:00 15.2 0 Calma 6 Nordeste 0 965.2 -0.5 97
2019-08-03 04:00:00 15.6 0 Calma 4 Norte 0 965.2 -0.8 96
2019-08-03 03:00:00 15.6 2 Noroeste 3 Noroeste 0 965.4 -1 97
2019-08-03 02:00:00 15 0 Calma 3 Noroeste 0 965.7 -0.9 93
2019-08-03 01:00:00 15.8 0 Calma 3 Sur 0 966 0 90
2019-08-03 00:00:00 17 0 Calma 4 Este 0 966.4 0.9 89
2019-08-02 23:00:00 18.2 2 Noroeste 12 Nordeste 0 966.6 1.7 88
2019-08-02 22:00:00 19.3 5 Nordeste 14 Nordeste 0 966 1.1 84
2019-08-02 21:00:00 22.3 4 Nordeste 14 Este 0 965.5 0.4 74
2019-08-02 20:00:00 24.9 9 Nordeste 18 Nordeste 0 964.9 -0.7 65
2019-08-02 19:00:00 26.9 9 Nordeste 18 Este 0 964.9 -1 57
2019-08-02 18:00:00 28.8 5 Oeste 18 Noroeste 0 965.1 -1.3 39
2019-08-02 17:00:00 28.2 6 Norte 16 Noroeste 0 965.6 -1.1 42
2019-08-02 16:00:00 26.8 6 Este 14 Nordeste 0 965.9 -1.1 48
2019-08-02 15:00:00 25.3 4 Nordeste 13 Nordeste 0 966.4 -0.9 53
2019-08-02 14:00:00 22.9 3 Este 12 Nordeste 0 966.7 -0.5 64
2019-08-02 13:00:00 20.4 5 Noroeste 17 Este 0 967 0.1 71
2019-08-02 12:00:00 18 6 Este 11 Sudeste 0 967.3 0.8 80
2019-08-02 11:00:00 16.7 5 Nordeste 10 Este 0 967.2 0.9 85
2019-08-02 10:00:00 16.1 5 Este 11 Sudeste 0 966.9 0.9 89
2019-08-02 09:00:00 16 3 Este 11 Este 0 966.5 0.7 90
2019-08-02 08:00:00 16 6 Este 10 Este 0 966.3 0.4 89
2019-08-02 07:00:00 16 4 Sudeste 10 Sudeste 0 966 0 90
2019-08-02 06:00:00 15.9 5 Este 10 Este 0 965.8 -0.5 90
2019-08-02 05:00:00 15.7 3 Nordeste 8 Nordeste 0 965.9 -0.5 92
2019-08-02 04:00:00 15.6 5 Nordeste 11 Este 0 966 -0.7 93
2019-08-02 03:00:00 16.2 3 Nordeste 9 Nordeste 0 966.3 -0.5 91
2019-08-02 02:00:00 16.7 3 Nordeste 10 Este 0 966.4 -0.1 90
2019-08-02 01:00:00 16.5 4 Nordeste 12 Nordeste 0 966.7 0.6 90
2019-08-02 00:00:00 16.7 5 Nordeste 21 Este 0 966.8 0.9 89
2019-08-01 23:00:00 16.9 6 Nordeste 17 Nordeste 0 966.5 1.1 90
2019-08-01 22:00:00 17.2 6 Nordeste 22 Este 0 966.1 1.1 88
2019-08-01 21:00:00 17.5 8 Nordeste 22 Este 0 965.9 1 88
2019-08-01 20:00:00 18.1 7 Nordeste 26 Nordeste 0 965.4 0.8 85
2019-08-01 19:00:00 19.2 10 Nordeste 24 Este 0 965 0.5 78
2019-08-01 18:00:00 20.5 8 Nordeste 22 Nordeste 0 964.9 0.5 75
2019-08-01 17:00:00 21.4 6 Nordeste 23 Nordeste 0 964.6 0.1 72
2019-08-01 16:00:00 22.7 13 Nordeste 23 Nordeste 0 964.5 0 67
2019-08-01 15:00:00 23.2 8 Nordeste 24 Nordeste 0 964.4 -0.2 66
2019-08-01 14:00:00 22.6 7 Nordeste 21 Este 0 964.5 0 63
2019-08-01 13:00:00 20.7 8 Nordeste 22 Nordeste 0 964.5 0.3 69
2019-08-01 12:00:00 19.1 9 Nordeste 21 Nordeste 0 964.6 0.8 72
2019-08-01 11:00:00 17.3 10 Nordeste 18 Este 0 964.5 0.8 80
2019-08-01 10:00:00 16.3 10 Nordeste 21 Nordeste 0 964.2 0.6 86
2019-08-01 09:00:00 15.8 7 Nordeste 19 Este 0 963.8 0.1 89
2019-08-01 08:00:00 15.2 6 Nordeste 14 Este 0 963.7 -0.3 91
2019-08-01 07:00:00 14.8 3 Nordeste 10 Nordeste 0 963.6 -0.7 92
2019-08-01 06:00:00 14.9 3 Nordeste 8 Este 0 963.7 -1 92
2019-08-01 05:00:00 14.5 3 Nordeste 14 Nordeste 0 964 -1 93
2019-08-01 04:00:00 14.3 2 Nordeste 16 Este 0 964.3 -1 94
2019-08-01 03:00:00 14.5 7 Nordeste 14 Este 0 964.7 -0.7 92
2019-08-01 02:00:00 14.6 4 Nordeste 14 Nordeste 0 965 -0.8 91
2019-08-01 01:00:00 14.8 6 Nordeste 19 Este 0 965.3 -0.4 90
2019-08-01 00:00:00 15.1 10 Nordeste 24 Nordeste 0 965.4 -0.2 89
2019-07-31 23:00:00 15.4 8 Nordeste 24 Nordeste 0 965.8 0.5 88
2019-07-31 22:00:00 15.5 6 Nordeste 23 Nordeste 0 965.7 0.5 86
2019-07-31 21:00:00 16.4 6 Nordeste 24 Nordeste 0 965.6 0.1 80
2019-07-31 20:00:00 18.5 10 Nordeste 24 Nordeste 0 965.3 -0.8 70
2019-07-31 19:00:00 20 7 Nordeste 27 Nordeste 0 965.2 -1.2 67
2019-07-31 18:00:00 19.9 11 Nordeste 30 Nordeste 0 965.5 -1 66
2019-07-31 17:00:00 20.9 9 Nordeste 21 Nordeste 0 966.1 -0.7 65
2019-07-31 16:00:00 20.7 10 Nordeste 24 Este 0 966.4 -0.7 64
2019-07-31 15:00:00 21.4 9 Nordeste 24 Nordeste 0 966.5 -0.9 57
2019-07-31 14:00:00 20.9 8 Nordeste 19 Este 0 966.8 -1 57
2019-07-31 13:00:00 19.6 6 Nordeste 22 Nordeste 0 967.1 -1 63
2019-07-31 12:00:00 18.9 6 Nordeste 17 Nordeste 0 967.4 -0.7 65
2019-07-31 11:00:00 15.2 5 Nordeste 14 Nordeste 0 967.8 -0.1 83
2019-07-31 10:00:00 10.9 2 Sudoeste 6 Nordeste 0 968.1 0.1 94
2019-07-31 09:00:00 8.4 3 Noroeste 6 Norte 0 968.1 -0.1 96
2019-07-31 08:00:00 6 0 Calma 3 Noroeste 0 967.9 -0.5 97
2019-07-31 07:00:00 6.1 2 Sur 4 Sudeste 0 968 -0.7 94
2019-07-31 06:00:00 6.6 0 Calma 5 Sur 0 968.2 -0.9 93
2019-07-31 05:00:00 7.1 2 Sudeste 4 Sur 0 968.4 -1.1 93
2019-07-31 04:00:00 7.9 2 Sur 4 Sudeste 0 968.7 -1.2 92
2019-07-31 03:00:00 8.9 0 Calma 8 Sudeste 0 969.1 -0.9 92
2019-07-31 02:00:00 9.9 2 Sudeste 4 Sur 0 969.5 -0.8 91
2019-07-31 01:00:00 11.1 2 Norte 13 Nordeste 0 969.9 0.2 91
2019-07-31 00:00:00 11.8 5 Nordeste 13 Nordeste 0 970 0.9 88
2019-07-30 23:00:00 12.7 3 Nordeste 13 Nordeste 0 970.3 1.4 84
2019-07-30 22:00:00 14.4 5 Nordeste 18 Nordeste 0 969.7 1 75
2019-07-30 21:00:00 16.7 6 Nordeste 22 Este 0 969.1 -0.1 66
2019-07-30 20:00:00 19 8 Nordeste 23 Nordeste 0 968.9 -0.6 58
2019-07-30 19:00:00 19.5 9 Nordeste 17 Nordeste 0 968.7 -1.1 51
2019-07-30 18:00:00 21.8 8 Noroeste 17 Noroeste 0 969.2 -1 43
2019-07-30 17:00:00 21.6 8 Noroeste 18 Noroeste 0 969.5 -0.9 41
2019-07-30 16:00:00 20.1 5 Nordeste 18 Oeste 0 969.8 -0.8 46
2019-07-30 15:00:00 19.6 6 Noroeste 20 Noroeste 0 970.2 -0.4 52
2019-07-30 14:00:00 19.2 6 Noroeste 16 Oeste 0 970.4 0.1 49
2019-07-30 13:00:00 17.2 5 Noroeste 14 Noroeste 0 970.6 0.4 65
2019-07-30 12:00:00 16.7 6 Sudoeste 14 Sudoeste 0 970.6 0.7 69
2019-07-30 11:00:00 15.4 3 Oeste 13 Oeste 0 970.3 0.8 76
2019-07-30 10:00:00 14.3 4 Oeste 10 Sudoeste 0 970.2 0.8 85
2019-07-30 09:00:00 12.5 5 Sudoeste 9 Sudoeste 0.6 969.9 0.8 95
2019-07-30 08:00:00 12.3 3 Sudoeste 8 Sudeste 0 969.5 0.6 91
2019-07-30 07:00:00 12 3 Sudoeste 7 Sudoeste 0 969.4 0.4 92
2019-07-30 06:00:00 12.1 4 Sudoeste 11 Sudoeste 0 969.1 0.3 93
2019-07-30 05:00:00 12.1 5 Sudoeste 10 Sudoeste 0 968.9 0 91
2019-07-30 04:00:00 12.1 5 Sudoeste 9 Sudoeste 0 969 0.6 90
2019-07-30 03:00:00 11.3 4 Sudoeste 12 Sudoeste 0 968.8 0.8 92
2019-07-30 02:00:00 11.2 5 Sudoeste 10 Sudoeste 0 968.9 1.2 93
2019-07-30 01:00:00 11.5 7 Sudoeste 13 Sudoeste 0 968.4 1.6 91
2019-07-30 00:00:00 11.6 3 Sur 7 Sudoeste 0 968 1.5 89
2019-07-29 23:00:00 12.9 4 Sudoeste 14 Sudoeste 0 967.7 1.5 88
2019-07-29 22:00:00 13.6 4 Sudoeste 15 Sudoeste 0 966.8 1.5 85
2019-07-29 21:00:00 14.7 9 Sudoeste 23 Oeste 0 966.5 1.7 79
2019-07-29 20:00:00 15.8 9 Oeste 28 Oeste 0 966.2 1.7 72
2019-07-29 19:00:00 18.4 10 Oeste 36 Oeste 0 965.3 1.1 59
2019-07-29 18:00:00 19.4 13 Oeste 30 Oeste 0 964.8 1.1 57
2019-07-29 17:00:00 18.2 8 Oeste 32 Oeste 0.2 964.5 0.8 75
2019-07-29 16:00:00 19.8 12 Oeste 38 Sudoeste 0 964.2 1 57
2019-07-29 15:00:00 20 21 Oeste 40 Oeste 0 963.7 0.8 55
2019-07-29 14:00:00 19 22 Oeste 44 Oeste 0 963.7 1.1 63
2019-07-29 13:00:00 18.7 23 Oeste 40 Oeste 0 963.2 0.9 65
2019-07-29 12:00:00 16.9 18 Sudoeste 32 Sudoeste 0 962.9 1.2 72
2019-07-29 11:00:00 17.4 13 Sudoeste 28 Sudoeste 0 962.6 1.4 76
2019-07-29 10:00:00 15.4 8 Sudoeste 24 Sudoeste 0 962.3 1.8 88
2019-07-29 09:00:00 15.1 7 Sudoeste 18 Sudoeste 0 961.7 1.4 88
2019-07-29 08:00:00 14.2 8 Sudoeste 15 Sudoeste 0.2 961.2 1.2 94
2019-07-29 07:00:00 13.7 6 Sudoeste 16 Sur 0.4 960.5 0.1 96
2019-07-29 06:00:00 13.9 7 Sudoeste 14 Sudoeste 0.2 960.3 0 92
2019-07-29 05:00:00 15.8 5 Sudoeste 18 Sur 0 960 -0.2 74
2019-07-29 04:00:00 15.7 7 Sudoeste 29 Sudoeste 0 960.4 0.2 73
2019-07-29 03:00:00 16.5 8 Sudoeste 23 Sudoeste 0 960.3 -0.3 64
2019-07-29 02:00:00 16.1 10 Sudoeste 21 Sudoeste 0 960.2 -0.3 64
2019-07-29 01:00:00 15.4 8 Sudoeste 19 Sudoeste 0 960.2 0.6 69
2019-07-29 00:00:00 16.3 9 Sudoeste 20 Sudoeste 0 960.6 1.6 68
2019-07-28 23:00:00 17.9 6 Sudoeste 20 Sudoeste 0 960.5 1.9 64
2019-07-28 22:00:00 20.3 9 Oeste 21 Oeste 0 959.6 1 56
2019-07-28 21:00:00 23.3 11 Oeste 22 Oeste 0 959 0.1 45
2019-07-28 20:00:00 25.7 9 Oeste 24 Oeste 0 958.6 -1.1 41
2019-07-28 19:00:00 26.5 15 Sudoeste 27 Oeste 0 958.6 -1.6 40
2019-07-28 18:00:00 27 12 Oeste 26 Oeste 0 958.9 -1.9 38
2019-07-28 17:00:00 26.7 13 Oeste 26 Oeste 0 959.7 -1.8 38
2019-07-28 16:00:00 25.3 6 Sudoeste 21 Sudoeste 0 960.2 -1.7 45
2019-07-28 15:00:00 24.3 9 Sudoeste 23 Oeste 0 960.8 -1.6 44
2019-07-28 14:00:00 23.1 10 Sudoeste 21 Oeste 0 961.5 -1.4 50
2019-07-28 13:00:00 21.2 9 Oeste 22 Sudoeste 0 961.9 -1.2 60
2019-07-28 12:00:00 18.3 4 Nordeste 11 Norte 0 962.4 -0.7 72
2019-07-28 11:00:00 15.9 4 Norte 9 Noroeste 0 962.9 -0.4 78
2019-07-28 10:00:00 13 4 Noroeste 8 Norte 0 963.1 0.3 90
2019-07-28 09:00:00 9.7 0 Calma 4 Este 0 963.1 0.3 99
2019-07-28 08:00:00 8.2 0 Calma 3 Sur 0 963.3 -0.3 100
2019-07-28 07:00:00 7.5 0 Calma 4 Sur 0 962.8 -0.9 97
2019-07-28 06:00:00 8.2 2 Oeste 7 Sur 0 962.8 -1.2 97
2019-07-28 05:00:00 8.7 2 Sudoeste 4 Sur 0 963.6 -0.8 93
2019-07-28 04:00:00 9.2 0 Calma 6 Sudeste 0 963.7 -0.6 92
2019-07-28 03:00:00 9.9 2 Sudeste 7 Sudeste 0 964 -0.3 94
2019-07-28 02:00:00 10.4 0 Calma 4 Sur 0 964.4 0.2 92
2019-07-28 01:00:00 11 2 Norte 6 Sudeste 0 964.3 0.7 94
2019-07-28 00:00:00 12.4 0 Calma 6 Nordeste 0 964.3 1.3 92
2019-07-27 23:00:00 13.6 0 Calma 10 Este 0 964.2 1.6 89
2019-07-26 12:00:00 19.2 5 Oeste 15 Oeste 0 965.7 0.2 68
2019-07-26 11:00:00 17.2 5 Noroeste 15 Sudoeste 0 965.5 0.1 82
2019-07-26 10:00:00 16 5 Oeste 13 Oeste 0 965.9 0.8 88
2019-07-26 09:00:00 14.6 2 Sur 4 Sur 0 965.5 0.5 99
2019-07-26 08:00:00 13.7 2 Sudoeste 5 Oeste 0 965.4 0.1 98
2019-07-26 07:00:00 12.7 3 Sudeste 6 Sudeste 0 965.1 -0.1 96
2019-07-26 06:00:00 12.8 3 Sudeste 4 Sudeste 0.4 965 -0.4 98
2019-07-26 05:00:00 12.4 3 Noroeste 6 Sudeste 0.2 965.3 -0.5 98
2019-07-26 04:00:00 11.4 2 Sur 8 Sudeste 0 965.2 -0.6 96
2019-07-26 03:00:00 12 3 Sur 6 Sur 0 965.4 -0.1 92
2019-07-26 02:00:00 12.6 3 Sudeste 7 Sur 0 965.8 0.7 93
2019-07-26 01:00:00 13.5 3 Sudoeste 8 Oeste 0 965.8 1.3 91
2019-07-26 00:00:00 15.1 6 Sudoeste 14 Sudoeste 0 965.5 1.4 86
2019-07-25 23:00:00 16.3 5 Sudoeste 13 Oeste 0 965.1 1.3 82
2019-07-25 22:00:00 18.4 9 Oeste 17 Oeste 0 964.5 0.8 78
2019-07-25 21:00:00 19.3 5 Sudoeste 12 Sudoeste 0 964.1 0.4 81
2019-07-25 20:00:00 19.5 4 Sur 15 Sur 0 963.8 -0.3 79
2019-07-25 19:00:00 19.3 6 Sudoeste 15 Sudoeste 0 963.7 -0.1 84
2019-07-25 18:00:00 18.2 4 Sur 9 Sur 0 963.7 1 89
2019-07-25 17:00:00 17.2 4 Sudoeste 25 Sudoeste 1.6 964.1 2 93
2019-07-25 16:00:00 18.1 12 Oeste 35 Oeste 0.2 963.8 2 89
2019-07-25 15:00:00 21.9 15 Oeste 32 Oeste 0 962.7 0.9 73
2019-07-25 14:00:00 24.1 15 Sudoeste 36 Sudoeste 0 962.1 0.5 55
2019-07-25 13:00:00 25.4 14 Sudoeste 28 Sur 0 961.8 0.3 53
2019-07-25 12:00:00 23 12 Sudoeste 34 Sudoeste 0 961.8 0.4 60
2019-07-25 11:00:00 22.7 15 Sudoeste 36 Oeste 0 961.6 0.1 63
2019-07-25 10:00:00 21.1 14 Sudoeste 31 Sudoeste 0 961.5 0.2 71
2019-07-25 09:00:00 19.4 5 Sur 13 Sur 0 961.4 0.6 75
2019-07-25 08:00:00 16.7 3 Sudeste 8 Sur 0 961.5 0.8 82
2019-07-25 07:00:00 16.5 2 Este 9 Sur 0 961.3 0.5 78
2019-07-25 06:00:00 18.2 2 Sudoeste 17 Sur 0 960.8 -0.2 69
2019-07-25 05:00:00 18.5 3 Sudeste 17 Sur 0 960.7 -0.7 69
2019-07-25 04:00:00 19.3 4 Sur 17 Sudoeste 0 960.8 -0.8 67
2019-07-25 03:00:00 20 7 Sudoeste 16 Sudoeste 0 961 -1.1 64
2019-07-25 02:00:00 20.4 6 Sudoeste 15 Sudoeste 0 961.4 -1 60
2019-07-25 01:00:00 20.5 7 Sudoeste 16 Sudoeste 0 961.6 -0.3 60
2019-07-25 00:00:00 19 3 Sudoeste 6 Sudoeste 0 962.1 0.7 80
2019-07-24 23:00:00 20.7 2 Sur 10 Sudoeste 0 962.4 1.5 74
2019-07-24 22:00:00 23.3 6 Sudoeste 15 Oeste 0 961.9 1.1 62
2019-07-24 21:00:00 27.1 9 Oeste 20 Oeste 0 961.4 0.7 45
2019-07-24 20:00:00 29.9 10 Oeste 22 Oeste 0 960.9 0.2 37
2019-07-24 19:00:00 31 8 Oeste 23 Oeste 0 960.8 -0.2 38
2019-07-24 18:00:00 32 11 Oeste 28 Sudoeste 0 960.7 -0.9 37
2019-07-24 17:00:00 33 12 Oeste 28 Oeste 0 960.7 -1.3 35
2019-07-24 16:00:00 32.7 13 Sudoeste 39 Sudoeste 0 961 -1.7 33
2019-07-24 15:00:00 31.5 13 Sudoeste 28 Sudoeste 0 961.6 -1.5 37
2019-07-24 14:00:00 29.5 10 Sudoeste 22 Oeste 0 962 -1.5 48
2019-07-24 13:00:00 25.9 5 Noroeste 13 Oeste 0 962.7 -1.3 63
2019-07-24 12:00:00 24.1 4 Oeste 9 Noroeste 0 963.1 -1.1 69
2019-07-24 11:00:00 20.7 3 Este 8 Este 0 963.5 -0.8 81
2019-07-24 10:00:00 16.4 3 Nordeste 6 Este 0 964 -0.2 97
2019-07-24 09:00:00 15.7 3 Noroeste 6 Noroeste 0 964.2 0.1 97
2019-07-24 08:00:00 14.9 3 Este 7 Sur 0 964.3 -0.3 97
2019-07-24 07:00:00 15.9 2 Sudoeste 6 Oeste 0 964.2 -0.6 96
2019-07-24 06:00:00 16.5 0 Calma 8 Oeste 0 964.1 -1.2 97
2019-07-24 05:00:00 16.7 3 Sudoeste 5 Sudoeste 0 964.6 -1.2 97
2019-07-24 04:00:00 16.7 0 Calma 6 Sudeste 0 964.8 -0.9 99
2019-07-24 03:00:00 16 3 Sudeste 4 Sudeste 0 965.3 -0.3 96
2019-07-24 02:00:00 15.6 2 Sudeste 5 Oeste 0 965.8 0.4 91
2019-07-24 01:00:00 16.6 3 Sudeste 7 Sudeste 0 965.7 0.4 87
2019-07-24 00:00:00 17.7 2 Sur 8 Sudeste 0 965.6 0.5 83
2019-07-23 23:00:00 19.8 4 Sudeste 9 Sudeste 0 965.4 0.4 75
2019-07-23 22:00:00 23.1 3 Sudoeste 6 Nordeste 0 965.3 0.5 66
2019-07-23 21:00:00 25.4 3 Nordeste 15 Noroeste 0 965.1 0.5 54
2019-07-23 20:00:00 26.9 6 Noroeste 19 Noroeste 0 965 0.6 50
2019-07-23 19:00:00 26.6 7 Noroeste 26 Noroeste 0 964.8 1 52
2019-07-23 18:00:00 29.4 9 Noroeste 24 Noroeste 0 964.6 1 48
2019-07-23 17:00:00 31 15 Oeste 30 Sudoeste 0 964.4 0.7 39
2019-07-23 16:00:00 31.8 14 Oeste 26 Oeste 0 963.8 0.1 46
2019-07-23 15:00:00 32.2 11 Oeste 29 Sudoeste 0 963.6 -0.2 37
2019-07-23 14:00:00 31.6 8 Sudoeste 26 Oeste 0 963.7 -0.1 39
2019-07-23 13:00:00 29.2 5 Noroeste 20 Oeste 0 963.7 -0.5 53
2019-07-23 12:00:00 25.8 5 Norte 12 Este 0 963.8 -0.5 71
2019-07-23 11:00:00 23.9 3 Oeste 9 Este 0 963.8 -0.6 77
2019-07-23 10:00:00 21.4 3 Oeste 7 Noroeste 0 964.2 0.3 86
2019-07-23 09:00:00 19.5 3 Noroeste 17 Noroeste 0 964.3 0.6 94
2019-07-23 08:00:00 18.5 3 Noroeste 14 Sudoeste 0 964.4 -0.3 98
2019-07-23 07:00:00 18.1 4 Oeste 10 Este 0 963.9 -1.1 99
2019-07-23 06:00:00 18.4 5 Este 10 Sudeste 0 963.7 -1.4 97
2019-07-23 05:00:00 18.7 4 Oeste 10 Oeste 0 964.7 -0.7 97
2019-07-23 04:00:00 18.9 3 Sudoeste 9 Sudeste 0 965 -1.1 96
2019-07-23 03:00:00 19.3 2 Oeste 6 Oeste 0 965.1 -1.5 95
2019-07-23 02:00:00 19.5 2 Nordeste 6 Norte 0 965.4 -1.1 94
2019-07-23 01:00:00 19.5 4 Norte 9 Norte 0 966.1 -0.1 93
2019-07-23 00:00:00 19.4 4 Nordeste 13 Nordeste 0 966.6 0.5 94
2019-07-22 23:00:00 19.6 4 Nordeste 12 Este 0 966.5 0.6 93
2019-07-22 22:00:00 20.2 5 Nordeste 16 Norte 0 966.2 0.1 91
2019-07-22 21:00:00 21.1 4 Norte 19 Nordeste 0 966.1 -0.4 87
2019-07-22 20:00:00 22.4 10 Nordeste 21 Nordeste 0 965.9 -0.6 81
2019-07-22 19:00:00 24 9 Nordeste 23 Nordeste 0 966.1 -0.8 76
2019-07-22 18:00:00 25.8 11 Nordeste 22 Nordeste 0 966.5 -0.7 68
2019-07-22 17:00:00 27.1 6 Norte 23 Nordeste 0 966.5 -1.2 66
2019-07-22 16:00:00 27.5 6 Norte 21 Este 0 966.9 -1.3 65
2019-07-22 15:00:00 26.6 8 Nordeste 18 Nordeste 0 967.2 -1.3 67
2019-07-22 14:00:00 26.2 6 Norte 19 Nordeste 0 967.7 -1.2 69
2019-07-22 13:00:00 24.8 6 Nordeste 16 Este 0 968.2 -0.7 68
2019-07-22 12:00:00 22.7 9 Nordeste 18 Nordeste 0 968.5 -0.6 75
2019-07-22 11:00:00 20.2 8 Nordeste 17 Nordeste 0 968.9 -0.1 83
2019-07-22 10:00:00 19.2 7 Nordeste 18 Este 0 968.9 -0.2 86
2019-07-22 09:00:00 18.1 9 Este 15 Nordeste 0 969.1 0 86
2019-07-22 08:00:00 17.6 9 Este 15 Este 0 969 -0.3 89
2019-07-22 07:00:00 17.7 7 Este 14 Nordeste 0 969.1 -0.7 89
2019-07-22 06:00:00 17.7 9 Nordeste 17 Este 0 969.1 -0.9 90
2019-07-22 05:00:00 17.6 8 Este 21 Este 0 969.3 -1.2 91
2019-07-22 04:00:00 17.7 7 Nordeste 21 Este 0 969.8 -0.9 91
2019-07-22 03:00:00 17.5 5 Nordeste 10 Este 0 970 -1 94
2019-07-22 02:00:00 17.3 6 Nordeste 14 Nordeste 0 970.5 -0.6 94
2019-07-22 01:00:00 17.1 7 Nordeste 18 Nordeste 0 970.7 -0.1 94
2019-07-22 00:00:00 18 9 Nordeste 22 Este 0 971 0.4 91